createdAt,value
2022-08-01T00:00:43.765Z,45.90
2022-08-01T00:01:43.756Z,45.40
2022-08-01T00:02:43.819Z,41.50
2022-08-01T00:03:43.741Z,43.10
2022-08-01T00:04:43.725Z,47.70
2022-08-01T00:05:43.724Z,42.40
2022-08-01T00:06:43.700Z,43.30
2022-08-01T00:07:43.702Z,39.90
2022-08-01T00:08:43.701Z,43.60
2022-08-01T00:09:43.672Z,38.30
2022-08-01T00:10:43.648Z,39.70
2022-08-01T00:11:43.658Z,41.80
2022-08-01T00:12:43.653Z,40.70
2022-08-01T00:13:43.666Z,44.20
2022-08-01T00:14:43.608Z,42.20
2022-08-01T00:15:46.064Z,44.70
2022-08-01T00:16:43.601Z,40.80
2022-08-01T00:17:43.596Z,40.90
2022-08-01T00:18:43.565Z,45.10
2022-08-01T00:19:43.593Z,44.10
2022-08-01T00:20:43.565Z,44.00
2022-08-01T00:22:02.856Z,41.70
2022-08-01T00:22:43.532Z,45.10
2022-08-01T00:23:43.530Z,45.30
2022-08-01T00:24:43.513Z,44.80
2022-08-01T00:25:43.512Z,43.00
2022-08-01T00:26:43.484Z,44.80
2022-08-01T00:27:43.482Z,48.40
2022-08-01T00:28:43.460Z,48.70
2022-08-01T00:30:12.218Z,46.00
2022-08-01T00:30:43.467Z,43.20
2022-08-01T00:31:43.441Z,46.10
2022-08-01T00:32:43.426Z,48.80
2022-08-01T00:33:43.431Z,41.80
2022-08-01T00:34:43.413Z,41.00
2022-08-01T00:35:43.405Z,45.00
2022-08-01T00:36:43.377Z,43.50
2022-08-01T00:37:43.387Z,43.00
2022-08-01T00:38:43.370Z,46.20
2022-08-01T00:39:43.363Z,42.70
2022-08-01T00:40:43.346Z,44.30
2022-08-01T00:41:43.343Z,44.30
2022-08-01T00:42:43.907Z,39.80
2022-08-01T00:43:43.318Z,46.70
2022-08-01T00:44:43.304Z,44.80
2022-08-01T00:45:43.321Z,45.20
2022-08-01T00:46:43.287Z,45.50
2022-08-01T00:47:43.281Z,45.60
2022-08-01T00:48:43.265Z,47.20
2022-08-01T00:49:43.272Z,46.90
2022-08-01T00:50:43.253Z,49.30
2022-08-01T00:51:43.236Z,46.50
2022-08-01T00:52:43.221Z,41.40
2022-08-01T00:53:51.870Z,40.40
2022-08-01T00:54:43.218Z,45.60
2022-08-01T00:55:43.210Z,40.30
2022-08-01T00:56:43.185Z,39.10
2022-08-01T00:58:02.525Z,44.20
2022-08-01T00:58:43.170Z,38.20
2022-08-01T00:59:43.181Z,39.60
2022-08-01T01:00:52.117Z,42.40
2022-08-01T01:01:46.555Z,40.10
2022-08-01T01:02:43.117Z,36.30
2022-08-01T01:03:58.732Z,41.30
2022-08-01T01:04:43.114Z,38.00
2022-08-01T01:05:43.109Z,38.40
2022-08-01T01:06:43.087Z,37.30
2022-08-01T01:07:50.101Z,37.80
2022-08-01T01:08:43.078Z,38.40
2022-08-01T01:09:43.063Z,40.80
2022-08-01T01:10:43.065Z,40.20
2022-08-01T01:11:43.051Z,41.80
2022-08-01T01:12:45.842Z,45.60
2022-08-01T01:13:49.535Z,41.90
2022-08-01T01:14:43.019Z,48.90
2022-08-01T01:15:43.022Z,47.60
2022-08-01T01:16:42.994Z,47.80
2022-08-01T01:17:51.094Z,40.90
2022-08-01T01:18:42.973Z,52.80
2022-08-01T01:19:42.977Z,44.40
2022-08-01T01:20:42.967Z,41.00
2022-08-01T01:21:42.957Z,46.60
2022-08-01T01:22:42.922Z,42.70
2022-08-01T01:23:42.931Z,46.30
2022-08-01T01:24:42.911Z,46.50
2022-08-01T01:25:42.918Z,46.80
2022-08-01T01:26:42.888Z,49.70
2022-08-01T01:27:42.895Z,44.00
2022-08-01T01:28:42.876Z,41.80
2022-08-01T01:29:58.916Z,49.60
2022-08-01T01:30:42.870Z,58.30
2022-08-01T01:31:42.864Z,44.90
2022-08-01T01:32:42.868Z,32.90
2022-08-01T01:33:47.417Z,35.10
2022-08-01T01:34:42.807Z,28.30
2022-08-01T01:35:42.824Z,36.80
2022-08-01T01:36:42.808Z,36.50
2022-08-01T01:37:42.790Z,38.70
2022-08-01T01:38:42.775Z,30.60
2022-08-01T01:39:45.395Z,30.00
2022-08-01T01:40:42.767Z,24.60
2022-08-01T01:41:42.763Z,25.30
2022-08-01T01:42:42.737Z,26.80
2022-08-01T01:43:42.737Z,27.80
2022-08-01T01:44:42.723Z,23.40
2022-08-01T01:45:42.713Z,26.30
2022-08-01T01:46:42.700Z,27.60
2022-08-01T01:47:42.705Z,27.70
2022-08-01T01:48:42.689Z,26.40
2022-08-01T01:49:42.679Z,25.60
2022-08-01T01:50:42.664Z,25.10
2022-08-01T01:51:42.673Z,26.10
2022-08-01T01:52:42.648Z,30.00
2022-08-01T01:53:42.635Z,27.60
2022-08-01T01:54:42.620Z,27.00
2022-08-01T01:55:49.059Z,27.50
2022-08-01T01:56:42.625Z,27.80
2022-08-01T01:57:42.597Z,26.00
2022-08-01T01:58:42.578Z,28.30
2022-08-01T01:59:42.586Z,28.70
2022-08-01T02:00:42.561Z,29.60
2022-08-01T02:01:58.391Z,30.10
2022-08-01T02:02:42.617Z,33.00
2022-08-01T02:03:42.532Z,32.20
2022-08-01T02:04:42.517Z,32.10
2022-08-01T02:05:42.522Z,29.70
2022-08-01T02:06:42.510Z,30.60
2022-08-01T02:07:42.502Z,36.10
2022-08-01T02:08:42.481Z,36.70
2022-08-01T02:09:42.483Z,36.20
2022-08-01T02:10:42.474Z,35.60
2022-08-01T02:12:08.422Z,34.30
2022-08-01T02:12:42.442Z,33.20
2022-08-01T02:13:42.439Z,37.40
2022-08-01T02:14:42.423Z,31.40
2022-08-01T02:15:58.999Z,30.20
2022-08-01T02:16:42.405Z,37.90
2022-08-01T02:17:42.407Z,32.60
2022-08-01T02:18:42.383Z,35.70
2022-08-01T02:19:42.380Z,32.30
2022-08-01T02:20:42.367Z,34.00
2022-08-01T02:21:42.396Z,32.20
2022-08-01T02:22:42.347Z,31.90
2022-08-01T02:23:42.340Z,32.60
2022-08-01T02:24:42.321Z,29.20
2022-08-01T02:26:10.697Z,30.00
2022-08-01T02:26:42.314Z,36.10
2022-08-01T02:27:42.307Z,36.70
2022-08-01T02:28:42.290Z,32.90
2022-08-01T02:29:42.266Z,34.80
2022-08-01T02:30:42.251Z,33.00
2022-08-01T02:31:42.272Z,40.00
2022-08-01T02:32:42.248Z,33.70
2022-08-01T02:33:42.237Z,34.10
2022-08-01T02:34:42.217Z,32.50
2022-08-01T02:36:30.352Z,32.80
2022-08-01T02:36:42.204Z,33.10
2022-08-01T02:37:44.293Z,32.30
2022-08-01T02:38:42.169Z,32.60
2022-08-01T02:39:42.167Z,31.70
2022-08-01T02:40:42.144Z,33.60
2022-08-01T02:41:42.145Z,38.60
2022-08-01T02:42:42.137Z,37.70
2022-08-01T02:43:42.128Z,33.70
2022-08-01T02:44:42.092Z,31.80
2022-08-01T02:45:42.107Z,36.10
2022-08-01T02:46:42.085Z,33.60
2022-08-01T02:47:42.092Z,32.70
2022-08-01T02:48:42.060Z,31.10
2022-08-01T02:49:42.077Z,29.80
2022-08-01T02:50:42.049Z,33.30
2022-08-01T02:51:42.042Z,32.60
2022-08-01T02:52:42.033Z,37.70
2022-08-01T02:53:44.455Z,33.40
2022-08-01T02:54:42.014Z,31.90
2022-08-01T02:55:42.004Z,31.10
2022-08-01T02:56:41.995Z,35.30
2022-08-01T02:57:51.616Z,28.70
2022-08-01T02:58:41.978Z,28.60
2022-08-01T02:59:41.959Z,29.80
2022-08-01T03:00:41.949Z,31.30
2022-08-01T03:01:42.290Z,31.70
2022-08-01T03:02:41.934Z,25.30
2022-08-01T03:03:41.929Z,24.80
2022-08-01T03:04:41.917Z,28.60
2022-08-01T03:05:41.909Z,27.40
2022-08-01T03:06:42.680Z,27.20
2022-08-01T03:07:41.892Z,25.00
2022-08-01T03:08:41.884Z,29.10
2022-08-01T03:09:41.865Z,29.50
2022-08-01T03:10:41.853Z,26.30
2022-08-01T03:11:41.844Z,27.60
2022-08-01T03:12:41.835Z,30.00
2022-08-01T03:13:41.842Z,27.50
2022-08-01T03:14:41.806Z,23.20
2022-08-01T03:15:41.821Z,29.10
2022-08-01T03:16:41.789Z,25.20
2022-08-01T03:17:41.787Z,28.60
2022-08-01T03:18:41.776Z,26.80
2022-08-01T03:19:41.831Z,27.60
2022-08-01T03:20:41.765Z,27.10
2022-08-01T03:21:41.757Z,23.50
2022-08-01T03:22:41.675Z,27.20
2022-08-01T03:23:41.739Z,29.40
2022-08-01T03:24:41.668Z,27.30
2022-08-01T03:25:41.659Z,27.20
2022-08-01T03:26:41.663Z,27.40
2022-08-01T03:27:41.645Z,25.10
2022-08-01T03:28:41.638Z,25.50
2022-08-01T03:29:41.651Z,24.20
2022-08-01T03:30:41.603Z,26.80
2022-08-01T03:31:41.608Z,25.50
2022-08-01T03:32:41.601Z,29.10
2022-08-01T03:33:41.627Z,28.30
2022-08-01T03:34:41.575Z,25.00
2022-08-01T03:35:41.565Z,24.30
2022-08-01T03:36:41.553Z,25.50
2022-08-01T03:37:54.554Z,25.80
2022-08-01T03:38:41.536Z,25.20
2022-08-01T03:39:41.504Z,25.30
2022-08-01T03:40:41.512Z,27.60
2022-08-01T03:41:41.501Z,26.20
2022-08-01T03:42:41.493Z,25.40
2022-08-01T03:43:41.468Z,27.10
2022-08-01T03:44:41.476Z,24.40
2022-08-01T03:45:41.461Z,24.60
2022-08-01T03:46:41.454Z,25.20
2022-08-01T03:47:43.668Z,26.60
2022-08-01T03:48:41.428Z,24.70
2022-08-01T03:49:41.418Z,24.90
2022-08-01T03:50:41.418Z,26.00
2022-08-01T03:51:41.396Z,28.20
2022-08-01T03:52:41.417Z,23.70
2022-08-01T03:53:42.540Z,26.70
2022-08-01T03:54:41.388Z,26.80
2022-08-01T03:55:41.345Z,25.10
2022-08-01T03:56:41.366Z,23.70
2022-08-01T03:57:41.340Z,28.70
2022-08-01T03:58:41.353Z,25.70
2022-08-01T03:59:41.309Z,25.20
2022-08-01T04:00:41.313Z,25.20
2022-08-01T04:01:41.438Z,27.10
2022-08-01T04:02:41.303Z,24.10
2022-08-01T04:03:42.009Z,26.00
2022-08-01T04:04:41.282Z,25.20
2022-08-01T04:05:41.259Z,22.60
2022-08-01T04:06:41.258Z,22.80
2022-08-01T04:07:41.237Z,22.00
2022-08-01T04:08:41.252Z,23.20
2022-08-01T04:09:41.232Z,20.10
2022-08-01T04:10:41.209Z,24.80
2022-08-01T04:11:41.207Z,23.40
2022-08-01T04:12:41.212Z,22.40
2022-08-01T04:13:41.186Z,25.20
2022-08-01T04:14:41.179Z,25.00
2022-08-01T04:15:41.164Z,22.90
2022-08-01T04:16:41.163Z,24.90
2022-08-01T04:17:41.136Z,23.30
2022-08-01T04:18:41.146Z,23.60
2022-08-01T04:19:41.119Z,27.00
2022-08-01T04:20:41.126Z,22.50
2022-08-01T04:21:41.094Z,26.50
2022-08-01T04:22:41.090Z,26.20
2022-08-01T04:23:41.092Z,24.80
2022-08-01T04:24:41.085Z,23.80
2022-08-01T04:25:41.062Z,26.50
2022-08-01T04:26:41.060Z,25.80
2022-08-01T04:27:50.121Z,23.60
2022-08-01T04:28:41.066Z,27.30
2022-08-01T04:29:41.023Z,28.70
2022-08-01T04:30:41.015Z,28.20
2022-08-01T04:31:41.005Z,24.50
2022-08-01T04:32:41.010Z,28.20
2022-08-01T04:33:40.992Z,22.20
2022-08-01T04:34:41.011Z,25.00
2022-08-01T04:36:03.566Z,23.60
2022-08-01T04:36:40.969Z,22.80
2022-08-01T04:37:40.935Z,21.30
2022-08-01T04:38:40.939Z,21.30
2022-08-01T04:39:50.294Z,22.80
2022-08-01T04:40:40.924Z,24.50
2022-08-01T04:41:40.921Z,20.90
2022-08-01T04:42:40.908Z,22.10
2022-08-01T04:43:42.279Z,21.50
2022-08-01T04:44:40.884Z,22.50
2022-08-01T04:45:40.873Z,21.00
2022-08-01T04:46:40.865Z,21.30
2022-08-01T04:47:40.858Z,18.20
2022-08-01T04:48:40.838Z,19.90
2022-08-01T04:49:48.476Z,18.00
2022-08-01T04:50:40.845Z,16.90
2022-08-01T04:51:40.815Z,17.90
2022-08-01T04:52:40.800Z,18.10
2022-08-01T04:53:40.785Z,17.40
2022-08-01T04:54:40.785Z,16.30
2022-08-01T04:55:40.764Z,16.30
2022-08-01T04:56:40.780Z,19.50
2022-08-01T04:57:40.741Z,17.90
2022-08-01T04:58:40.745Z,20.80
2022-08-01T04:59:40.717Z,17.20
2022-08-01T05:00:40.741Z,15.90
2022-08-01T05:01:40.745Z,17.50
2022-08-01T05:02:40.711Z,17.30
2022-08-01T05:03:40.687Z,16.30
2022-08-01T05:04:40.676Z,17.10
2022-08-01T05:05:40.687Z,15.40
2022-08-01T05:06:40.670Z,17.40
2022-08-01T05:07:45.639Z,17.00
2022-08-01T05:08:40.648Z,16.80
2022-08-01T05:09:40.622Z,20.40
2022-08-01T05:10:40.627Z,19.20
2022-08-01T05:11:40.609Z,19.10
2022-08-01T05:12:40.597Z,18.50
2022-08-01T05:13:40.581Z,19.10
2022-08-01T05:14:40.577Z,17.90
2022-08-01T05:15:40.569Z,20.50
2022-08-01T05:16:40.575Z,19.90
2022-08-01T05:17:40.534Z,20.20
2022-08-01T05:18:40.529Z,22.10
2022-08-01T05:19:40.542Z,22.80
2022-08-01T05:20:40.527Z,21.50
2022-08-01T05:21:40.517Z,22.10
2022-08-01T05:22:40.503Z,21.70
2022-08-01T05:23:43.038Z,21.40
2022-08-01T05:24:40.489Z,21.40
2022-08-01T05:25:55.962Z,22.00
2022-08-01T05:26:40.488Z,21.20
2022-08-01T05:27:40.477Z,23.10
2022-08-01T05:28:40.448Z,21.10
2022-08-01T05:29:44.586Z,26.80
2022-08-01T05:30:40.415Z,25.30
2022-08-01T05:31:40.416Z,24.40
2022-08-01T05:32:40.416Z,21.30
2022-08-01T05:33:40.382Z,23.90
2022-08-01T05:34:40.375Z,24.80
2022-08-01T05:35:48.559Z,22.50
2022-08-01T05:36:40.376Z,24.70
2022-08-01T05:37:40.351Z,23.50
2022-08-01T05:38:40.339Z,21.90
2022-08-01T05:39:40.333Z,24.20
2022-08-01T05:40:40.329Z,21.40
2022-08-01T05:41:40.315Z,21.20
2022-08-01T05:42:40.307Z,21.70
2022-08-01T05:43:40.287Z,20.90
2022-08-01T05:44:40.282Z,21.60
2022-08-01T05:45:40.255Z,19.90
2022-08-01T05:46:40.267Z,18.40
2022-08-01T05:47:42.953Z,19.90
2022-08-01T05:48:40.257Z,25.50
2022-08-01T05:49:40.227Z,19.70
2022-08-01T05:50:40.223Z,18.50
2022-08-01T05:51:40.211Z,21.70
2022-08-01T05:52:40.222Z,20.10
2022-08-01T05:53:40.182Z,20.30
2022-08-01T05:54:40.187Z,20.00
2022-08-01T05:55:40.169Z,20.50
2022-08-01T05:56:40.161Z,19.60
2022-08-01T05:57:40.683Z,19.80
2022-08-01T05:58:40.140Z,20.40
2022-08-01T05:59:40.149Z,21.20
2022-08-01T06:00:40.133Z,23.20
2022-08-01T06:01:40.168Z,20.20
2022-08-01T06:02:40.163Z,19.00
2022-08-01T06:03:40.089Z,19.40
2022-08-01T06:04:40.097Z,21.50
2022-08-01T06:05:40.073Z,18.00
2022-08-01T06:06:40.072Z,16.20
2022-08-01T06:07:40.050Z,23.00
2022-08-01T06:08:40.066Z,19.70
2022-08-01T06:09:40.036Z,18.50
2022-08-01T06:10:40.032Z,16.40
2022-08-01T06:11:40.017Z,19.70
2022-08-01T06:12:40.017Z,21.10
2022-08-01T06:13:44.943Z,19.80
2022-08-01T06:14:40.012Z,17.20
2022-08-01T06:15:39.973Z,19.80
2022-08-01T06:16:39.975Z,18.40
2022-08-01T06:17:39.959Z,17.70
2022-08-01T06:18:39.952Z,19.60
2022-08-01T06:19:39.930Z,18.00
2022-08-01T06:20:39.928Z,18.00
2022-08-01T06:21:39.922Z,17.30
2022-08-01T06:22:39.957Z,16.70
2022-08-01T06:23:39.890Z,18.30
2022-08-01T06:24:39.908Z,18.20
2022-08-01T06:25:39.876Z,18.20
2022-08-01T06:26:39.873Z,15.40
2022-08-01T06:27:39.854Z,14.50
2022-08-01T06:28:39.846Z,15.50
2022-08-01T06:29:39.826Z,15.80
2022-08-01T06:30:39.841Z,15.10
2022-08-01T06:31:39.819Z,15.70
2022-08-01T06:32:39.819Z,16.30
2022-08-01T06:33:39.798Z,15.60
2022-08-01T06:34:39.782Z,14.20
2022-08-01T06:35:39.784Z,13.50
2022-08-01T06:36:39.771Z,14.10
2022-08-01T06:37:39.752Z,14.70
2022-08-01T06:38:39.749Z,15.30
2022-08-01T06:39:39.737Z,12.80
2022-08-01T06:40:39.743Z,12.90
2022-08-01T06:41:39.722Z,15.40
2022-08-01T06:42:39.715Z,15.50
2022-08-01T06:43:39.696Z,14.50
2022-08-01T06:44:39.695Z,13.40
2022-08-01T06:45:39.670Z,13.60
2022-08-01T06:46:39.674Z,13.50
2022-08-01T06:47:39.642Z,14.60
2022-08-01T06:48:39.646Z,13.60
2022-08-01T06:49:39.629Z,13.00
2022-08-01T06:50:39.633Z,13.30
2022-08-01T06:51:39.616Z,14.00
2022-08-01T06:52:39.610Z,14.80
2022-08-01T06:53:39.599Z,19.40
2022-08-01T06:54:39.593Z,20.80
2022-08-01T06:55:39.569Z,19.30
2022-08-01T06:56:39.566Z,22.00
2022-08-01T06:57:39.555Z,20.20
2022-08-01T06:58:39.547Z,21.80
2022-08-01T06:59:39.519Z,19.70
2022-08-01T07:00:39.593Z,22.90
2022-08-01T07:01:39.580Z,20.10
2022-08-01T07:02:39.526Z,20.80
2022-08-01T07:03:53.984Z,21.50
2022-08-01T07:04:39.487Z,18.80
2022-08-01T07:05:39.469Z,19.40
2022-08-01T07:06:39.460Z,19.90
2022-08-01T07:07:39.458Z,21.10
2022-08-01T07:08:39.459Z,19.80
2022-08-01T07:09:39.538Z,20.80
2022-08-01T07:10:39.420Z,20.00
2022-08-01T07:11:39.400Z,17.10
2022-08-01T07:12:39.391Z,18.50
2022-08-01T07:13:43.984Z,17.30
2022-08-01T07:14:39.393Z,19.70
2022-08-01T07:15:39.357Z,16.20
2022-08-01T07:16:39.362Z,15.10
2022-08-01T07:17:39.366Z,16.00
2022-08-01T07:18:39.345Z,15.40
2022-08-01T07:19:39.318Z,15.70
2022-08-01T07:20:50.357Z,15.50
2022-08-01T07:21:40.957Z,14.60
2022-08-01T07:22:39.308Z,14.00
2022-08-01T07:23:39.300Z,14.20
2022-08-01T07:24:39.282Z,15.40
2022-08-01T07:25:39.264Z,13.40
2022-08-01T07:26:39.248Z,12.90
2022-08-01T07:27:39.245Z,13.80
2022-08-01T07:28:44.062Z,12.60
2022-08-01T07:29:39.216Z,12.90
2022-08-01T07:30:39.212Z,13.30
2022-08-01T07:31:39.190Z,13.70
2022-08-01T07:32:39.190Z,12.90
2022-08-01T07:33:48.552Z,13.40
2022-08-01T07:34:39.185Z,13.80
2022-08-01T07:35:39.149Z,12.40
2022-08-01T07:36:39.142Z,13.10
2022-08-01T07:37:46.164Z,14.00
2022-08-01T07:38:39.130Z,14.00
2022-08-01T07:39:39.108Z,13.20
2022-08-01T07:40:39.130Z,14.50
2022-08-01T07:42:02.469Z,13.00
2022-08-01T07:42:39.085Z,12.00
2022-08-01T07:43:39.081Z,13.90
2022-08-01T07:44:39.091Z,11.30
2022-08-01T07:45:39.048Z,10.80
2022-08-01T07:46:39.045Z,11.30
2022-08-01T07:47:39.030Z,10.60
2022-08-01T07:48:39.027Z,10.40
2022-08-01T07:49:40.724Z,11.10
2022-08-01T07:50:39.006Z,9.70
2022-08-01T07:51:38.973Z,11.20
2022-08-01T07:52:38.974Z,9.10
2022-08-01T07:53:38.973Z,10.20
2022-08-01T07:54:38.963Z,12.60
2022-08-01T07:55:38.946Z,11.40
2022-08-01T07:56:38.917Z,9.50
2022-08-01T07:57:38.929Z,11.50
2022-08-01T07:58:38.919Z,11.20
2022-08-01T07:59:38.902Z,8.90
2022-08-01T08:00:38.889Z,9.70
2022-08-01T08:01:38.953Z,9.20
2022-08-01T08:02:38.860Z,9.00
2022-08-01T08:03:38.851Z,9.00
2022-08-01T08:04:38.837Z,9.50
2022-08-01T08:05:58.679Z,10.00
2022-08-01T08:06:38.823Z,9.00
2022-08-01T08:07:38.823Z,9.20
2022-08-01T08:08:38.795Z,7.40
2022-08-01T08:09:38.799Z,9.00
2022-08-01T08:10:38.787Z,9.40
2022-08-01T08:11:38.778Z,7.50
2022-08-01T08:12:38.750Z,7.70
2022-08-01T08:13:38.747Z,7.30
2022-08-01T08:14:38.740Z,7.20
2022-08-01T08:15:38.733Z,7.70
2022-08-01T08:16:38.703Z,7.60
2022-08-01T08:17:38.725Z,8.60
2022-08-01T08:18:38.692Z,8.40
2022-08-01T08:19:39.182Z,7.80
2022-08-01T08:20:38.675Z,8.20
2022-08-01T08:21:38.734Z,7.10
2022-08-01T08:22:38.660Z,6.90
2022-08-01T08:23:42.326Z,7.40
2022-08-01T08:24:46.213Z,6.80
2022-08-01T08:25:38.635Z,6.30
2022-08-01T08:26:38.599Z,7.30
2022-08-01T08:27:38.603Z,6.00
2022-08-01T08:28:38.588Z,7.50
2022-08-01T08:29:38.583Z,4.30
2022-08-01T08:30:38.576Z,5.70
2022-08-01T08:31:51.458Z,4.90
2022-08-01T08:32:38.550Z,5.40
2022-08-01T08:33:38.544Z,5.50
2022-08-01T08:34:38.532Z,4.20
2022-08-01T08:35:40.514Z,7.80
2022-08-01T08:36:38.514Z,6.20
2022-08-01T08:37:47.219Z,4.60
2022-08-01T08:38:38.488Z,6.00
2022-08-01T08:39:41.872Z,4.50
2022-08-01T08:40:38.492Z,3.50
2022-08-01T08:41:38.461Z,3.40
2022-08-01T08:42:38.445Z,3.40
2022-08-01T08:43:38.451Z,2.80
2022-08-01T08:44:38.418Z,4.10
2022-08-01T08:45:59.285Z,4.40
2022-08-01T08:46:38.413Z,3.20
2022-08-01T08:47:38.402Z,3.70
2022-08-01T08:48:38.401Z,2.30
2022-08-01T08:49:38.461Z,3.00
2022-08-01T08:50:38.364Z,3.50
2022-08-01T08:51:38.359Z,3.60
2022-08-01T08:52:38.343Z,3.90
2022-08-01T08:53:38.341Z,3.30
2022-08-01T08:54:38.316Z,3.00
2022-08-01T08:55:55.421Z,4.60
2022-08-01T08:56:38.301Z,2.10
2022-08-01T08:57:38.306Z,1.70
2022-08-01T08:58:38.293Z,1.20
2022-08-01T08:59:38.281Z,4.00
2022-08-01T09:00:38.250Z,2.20
2022-08-01T09:01:38.259Z,1.40
2022-08-01T09:02:38.244Z,1.30
2022-08-01T09:03:38.292Z,0.80
2022-08-01T09:04:38.217Z,1.70
2022-08-01T09:05:38.560Z,1.10
2022-08-01T09:06:38.216Z,2.30
2022-08-01T09:07:38.215Z,3.20
2022-08-01T09:08:38.174Z,2.00
2022-08-01T09:09:41.583Z,1.40
2022-08-01T09:10:38.148Z,0.80
2022-08-01T09:11:38.150Z,1.10
2022-08-01T09:12:38.127Z,1.00
2022-08-01T09:13:38.144Z,0.80
2022-08-01T09:14:38.145Z,0.70
2022-08-01T09:15:38.105Z,1.20
2022-08-01T09:16:38.138Z,1.80
2022-08-01T09:17:38.093Z,0.70
2022-08-01T09:18:38.086Z,1.10
2022-08-01T09:19:39.099Z,1.30
2022-08-01T09:20:38.038Z,1.90
2022-08-01T09:21:38.053Z,1.30
2022-08-01T09:22:38.032Z,0.60
2022-08-01T09:23:38.019Z,0.70
2022-08-01T09:24:38.020Z,1.80
2022-08-01T09:25:46.167Z,0.90
2022-08-01T09:26:38.016Z,1.00
2022-08-01T09:27:37.981Z,1.20
2022-08-01T09:28:37.972Z,1.50
2022-08-01T09:29:41.130Z,0.60
2022-08-01T09:30:37.947Z,0.60
2022-08-01T09:31:38.783Z,2.00
2022-08-01T09:32:37.941Z,0.80
2022-08-01T09:33:37.919Z,1.90
2022-08-01T09:34:37.907Z,0.70
2022-08-01T09:35:43.802Z,0.70
2022-08-01T09:36:37.890Z,0.80
2022-08-01T09:37:37.867Z,0.90
2022-08-01T09:38:37.872Z,0.80
2022-08-01T09:39:37.854Z,0.60
2022-08-01T09:40:37.833Z,0.70
2022-08-01T09:41:40.234Z,2.50
2022-08-01T09:42:37.807Z,1.10
2022-08-01T09:43:37.821Z,2.00
2022-08-01T09:44:42.558Z,1.10
2022-08-01T09:45:39.700Z,1.40
2022-08-01T09:46:37.772Z,1.50
2022-08-01T09:47:38.815Z,0.80
2022-08-01T09:48:37.757Z,2.10
2022-08-01T09:49:50.558Z,0.80
2022-08-01T09:50:37.732Z,1.10
2022-08-01T09:51:59.932Z,1.90
2022-08-01T09:52:37.737Z,1.80
2022-08-01T09:53:38.125Z,0.60
2022-08-01T09:54:37.680Z,1.70
2022-08-01T09:55:37.686Z,0.40
2022-08-01T09:56:37.682Z,1.10
2022-08-01T09:57:37.668Z,1.40
2022-08-01T09:58:37.640Z,1.20
2022-08-01T09:59:57.070Z,0.50
2022-08-01T10:00:45.182Z,0.90
2022-08-01T10:01:40.484Z,0.80
2022-08-01T10:02:37.602Z,0.90
2022-08-01T10:03:37.649Z,0.70
2022-08-01T10:04:37.586Z,1.30
2022-08-01T10:05:37.587Z,1.00
2022-08-01T10:06:37.573Z,0.70
2022-08-01T10:07:43.930Z,1.20
2022-08-01T10:08:37.581Z,1.50
2022-08-01T10:09:40.639Z,1.00
2022-08-01T10:10:37.675Z,1.50
2022-08-01T10:11:37.535Z,1.00
2022-08-01T10:12:37.498Z,1.70
2022-08-01T10:13:37.490Z,1.10
2022-08-01T10:14:37.481Z,4.40
2022-08-01T10:15:38.006Z,1.80
2022-08-01T10:16:38.371Z,1.70
2022-08-01T10:17:50.320Z,2.70
2022-08-01T10:18:37.437Z,1.20
2022-08-01T10:19:37.435Z,1.20
2022-08-01T10:20:37.422Z,1.70
2022-08-01T10:21:56.202Z,1.00
2022-08-01T10:22:37.408Z,1.60
2022-08-01T10:23:40.020Z,0.70
2022-08-01T10:24:37.366Z,2.20
2022-08-01T10:25:41.995Z,1.30
2022-08-01T10:26:37.360Z,1.10
2022-08-01T10:27:39.480Z,1.20
2022-08-01T10:28:39.260Z,1.40
2022-08-01T10:29:45.950Z,1.60
2022-08-01T10:30:37.342Z,1.60
2022-08-01T10:31:37.314Z,1.30
2022-08-01T10:32:39.429Z,1.20
2022-08-01T10:33:52.384Z,0.70
2022-08-01T10:34:37.271Z,1.10
2022-08-01T10:35:46.841Z,0.70
2022-08-01T10:36:37.252Z,1.40
2022-08-01T10:37:51.491Z,0.60
2022-08-01T10:38:37.530Z,0.90
2022-08-01T10:39:37.224Z,1.00
2022-08-01T10:40:37.221Z,1.00
2022-08-01T10:41:37.203Z,1.70
2022-08-01T10:42:37.191Z,1.70
2022-08-01T10:43:37.201Z,2.00
2022-08-01T10:44:37.176Z,1.70
2022-08-01T10:45:37.164Z,1.40
2022-08-01T10:46:37.143Z,3.10
2022-08-01T10:47:51.049Z,1.80
2022-08-01T10:48:37.132Z,2.90
2022-08-01T10:49:37.169Z,1.30
2022-08-01T10:50:37.095Z,2.00
2022-08-01T10:51:51.581Z,1.60
2022-08-01T10:52:39.689Z,1.70
2022-08-01T10:53:42.694Z,1.40
2022-08-01T10:54:37.072Z,1.30
2022-08-01T10:55:37.061Z,1.20
2022-08-01T10:56:37.037Z,1.70
2022-08-01T10:57:37.031Z,1.70
2022-08-01T10:58:42.587Z,1.60
2022-08-01T10:59:50.702Z,1.00
2022-08-01T11:00:37.002Z,1.40
2022-08-01T11:01:37.366Z,2.00
2022-08-01T11:02:36.977Z,1.30
2022-08-01T11:03:55.975Z,1.50
2022-08-01T11:04:36.968Z,0.60
2022-08-01T11:05:36.950Z,1.30
2022-08-01T11:06:36.934Z,1.40
2022-08-01T11:07:37.015Z,1.80
2022-08-01T11:08:36.908Z,1.40
2022-08-01T11:09:38.008Z,2.20
2022-08-01T11:10:36.892Z,1.60
2022-08-01T11:11:37.523Z,3.40
2022-08-01T11:12:36.868Z,1.70
2022-08-01T11:13:36.873Z,2.60
2022-08-01T11:14:55.108Z,1.10
2022-08-01T11:15:36.845Z,1.60
2022-08-01T11:16:36.858Z,1.90
2022-08-01T11:17:37.733Z,1.30
2022-08-01T11:18:37.757Z,3.90
2022-08-01T11:19:36.809Z,0.90
2022-08-01T11:20:41.521Z,1.70
2022-08-01T11:21:58.831Z,1.40
2022-08-01T11:22:36.772Z,2.00
2022-08-01T11:23:36.761Z,2.00
2022-08-01T11:24:36.737Z,2.90
2022-08-01T11:26:06.197Z,2.10
2022-08-01T11:26:36.731Z,1.50
2022-08-01T11:27:36.714Z,1.60
2022-08-01T11:28:40.436Z,2.80
2022-08-01T11:29:36.716Z,1.50
2022-08-01T11:30:36.700Z,2.10
2022-08-01T11:31:37.833Z,2.30
2022-08-01T11:32:52.752Z,2.00
2022-08-01T11:33:36.654Z,2.70
2022-08-01T11:34:36.630Z,1.40
2022-08-01T11:35:36.674Z,2.30
2022-08-01T11:36:58.559Z,3.10
2022-08-01T11:37:36.619Z,2.10
2022-08-01T11:38:36.586Z,2.70
2022-08-01T11:39:38.848Z,2.30
2022-08-01T11:40:36.636Z,1.30
2022-08-01T11:41:38.071Z,2.10
2022-08-01T11:42:36.567Z,2.50
2022-08-01T11:43:36.549Z,3.20
2022-08-01T11:44:36.528Z,2.60
2022-08-01T11:45:36.542Z,2.70
2022-08-01T11:46:36.507Z,2.00
2022-08-01T11:47:36.966Z,1.90
2022-08-01T11:48:36.550Z,2.40
2022-08-01T11:49:36.519Z,1.10
2022-08-01T11:50:36.497Z,3.10
2022-08-01T11:51:36.460Z,1.30
2022-08-01T11:52:36.480Z,2.80
2022-08-01T11:53:36.708Z,2.80
2022-08-01T11:54:36.866Z,2.50
2022-08-01T11:55:36.448Z,2.80
2022-08-01T11:56:38.322Z,2.50
2022-08-01T11:57:36.399Z,3.30
2022-08-01T11:58:36.379Z,3.30
2022-08-01T11:59:38.275Z,5.60
2022-08-01T12:00:36.375Z,4.00
2022-08-01T12:01:36.377Z,2.70
2022-08-01T12:02:36.365Z,3.20
2022-08-01T12:03:36.341Z,3.20
2022-08-01T12:04:36.318Z,3.90
2022-08-01T12:05:36.323Z,3.30
2022-08-01T12:06:36.308Z,3.60
2022-08-01T12:07:36.294Z,3.60
2022-08-01T12:08:36.313Z,3.30
2022-08-01T12:09:36.264Z,4.50
2022-08-01T12:10:36.276Z,3.30
2022-08-01T12:11:37.218Z,3.30
2022-08-01T12:12:36.262Z,3.40
2022-08-01T12:13:36.220Z,2.90
2022-08-01T12:14:36.216Z,3.30
2022-08-01T12:15:36.220Z,3.40
2022-08-01T12:16:36.219Z,3.00
2022-08-01T12:17:36.192Z,4.00
2022-08-01T12:18:37.081Z,3.70
2022-08-01T12:19:36.167Z,4.30
2022-08-01T12:20:36.724Z,4.60
2022-08-01T12:21:36.152Z,3.20
2022-08-01T12:22:36.138Z,4.50
2022-08-01T12:23:36.134Z,3.10
2022-08-01T12:24:36.130Z,4.20
2022-08-01T12:25:36.101Z,4.00
2022-08-01T12:26:36.109Z,3.90
2022-08-01T12:27:36.102Z,4.90
2022-08-01T12:28:36.083Z,4.20
2022-08-01T12:29:36.053Z,3.20
2022-08-01T12:30:36.214Z,3.30
2022-08-01T12:31:36.062Z,3.00
2022-08-01T12:32:36.102Z,4.20
2022-08-01T12:33:36.030Z,3.00
2022-08-01T12:34:36.015Z,4.50
2022-08-01T12:35:36.016Z,4.50
2022-08-01T12:36:36.008Z,4.40
2022-08-01T12:37:36.000Z,4.10
2022-08-01T12:38:35.979Z,3.40
2022-08-01T12:39:35.957Z,3.30
2022-08-01T12:40:35.961Z,4.70
2022-08-01T12:41:35.943Z,3.90
2022-08-01T12:42:35.955Z,5.50
2022-08-01T12:43:35.909Z,3.50
2022-08-01T12:44:35.921Z,3.50
2022-08-01T12:45:35.909Z,4.30
2022-08-01T12:46:35.903Z,3.70
2022-08-01T12:47:35.908Z,3.90
2022-08-01T12:48:35.886Z,5.60
2022-08-01T12:49:35.937Z,3.50
2022-08-01T12:50:35.864Z,5.60
2022-08-01T12:51:35.843Z,4.60
2022-08-01T12:52:35.835Z,3.50
2022-08-01T12:53:41.084Z,6.10
2022-08-01T12:54:35.828Z,4.30
2022-08-01T12:55:35.802Z,4.50
2022-08-01T12:56:35.820Z,4.60
2022-08-01T12:57:37.662Z,4.50
2022-08-01T12:58:35.796Z,5.60
2022-08-01T12:59:35.759Z,4.60
2022-08-01T13:00:35.759Z,6.30
2022-08-01T13:01:35.846Z,4.70
2022-08-01T13:02:35.745Z,6.20